Time;durP1;ratioP1;P1;durP2;ratioP2;P2;SDS_P1;SDS_P2;PMS_P1;PMS_P2;Temp;Humidity;BMP_temperature;BMP_pressure;BME280_temperature;BME280_humidity;BME280_pressure;Samples;Min_cycle;Max_cycle;Signal;HPM_P1;HPM_P2
2023/08/18 04:22:33;;;;;;;23.65;14.77;;;;;;;18.57;100.00;100057.19;5130325;27;20322;-69
2023/08/18 04:24:59;;;;;;;32.90;16.35;;;;;;;18.60;100.00;100059.44;5130445;27;20119;-68
2023/08/18 04:27:24;;;;;;;26.00;15.18;;;;;;;18.56;100.00;100055.53;5128927;28;20523;-69
2023/08/18 04:29:49;;;;;;;25.25;14.77;;;;;;;18.58;100.00;100055.31;5129850;28;20039;-68
2023/08/18 04:32:15;;;;;;;25.83;14.23;;;;;;;18.41;100.00;100055.16;5128854;28;20042;-69
2023/08/18 04:34:40;;;;;;;24.83;14.98;;;;;;;18.35;100.00;100056.06;5128840;28;20092;-69
2023/08/18 04:37:06;;;;;;;25.50;14.07;;;;;;;18.32;100.00;100061.91;5128524;28;20032;-70
2023/08/18 04:39:31;;;;;;;22.17;14.18;;;;;;;18.24;100.00;100062.22;5128474;28;20074;-69
2023/08/18 04:41:57;;;;;;;21.08;13.45;;;;;;;18.22;100.00;100067.84;5129887;28;20036;-68
2023/08/18 04:44:24;;;;;;;22.38;13.65;;;;;;;18.21;100.00;100068.09;5128639;28;20109;-70
2023/08/18 04:46:49;;;;;;;27.15;14.23;;;;;;;18.24;100.00;100073.81;5129786;28;20049;-68
2023/08/18 04:49:21;;;;;;;21.60;13.20;;;;;;;18.21;100.00;100081.56;5128422;28;20055;-68
2023/08/18 04:51:47;;;;;;;21.98;13.48;;;;;;;18.25;100.00;100075.47;5128478;28;20031;-69
2023/08/18 04:54:12;;;;;;;25.98;14.02;;;;;;;18.26;100.00;100079.00;5128414;28;20501;-70
2023/08/18 04:56:38;;;;;;;24.42;15.23;;;;;;;18.18;100.00;100075.56;5129430;27;20054;-68
2023/08/18 04:59:03;;;;;;;30.63;17.05;;;;;;;18.21;100.00;100076.16;5128091;28;20035;-68
2023/08/18 05:01:29;;;;;;;24.55;14.27;;;;;;;18.15;100.00;100078.72;5129577;27;20062;-69
2023/08/18 05:03:54;;;;;;;27.08;13.98;;;;;;;18.19;100.00;100081.75;5128289;28;20039;-69
2023/08/18 05:06:20;;;;;;;26.13;15.05;;;;;;;18.21;100.00;100084.25;5128289;28;20493;-68
2023/08/18 05:08:45;;;;;;;23.20;14.77;;;;;;;18.25;100.00;100086.25;5129154;28;20161;-69
2023/08/18 05:11:11;;;;;;;21.95;14.55;;;;;;;18.26;100.00;100090.63;5129437;27;20389;-68
2023/08/18 05:13:38;;;;;;;24.50;13.70;;;;;;;18.28;100.00;100093.06;5129330;28;20379;-69
2023/08/18 05:16:04;;;;;;;27.00;14.55;;;;;;;18.31;100.00;100090.72;5129266;27;20027;-68
2023/08/18 05:18:30;;;;;;;26.65;14.32;;;;;;;18.29;100.00;100084.75;5129043;28;20118;-68
2023/08/18 05:20:57;;;;;;;24.65;13.52;;;;;;;18.32;100.00;100088.84;5129157;28;20447;-68
2023/08/18 05:23:24;;;;;;;25.70;14.07;;;;;;;18.34;100.00;100089.47;5129283;27;20031;-68
2023/08/18 05:25:53;;;;;;;20.88;13.23;;;;;;;18.33;100.00;100090.53;5129064;28;20043;-68
2023/08/18 05:28:20;;;;;;;21.30;12.57;;;;;;;18.37;100.00;100092.53;5129012;27;20120;-68
2023/08/18 05:30:46;;;;;;;25.23;13.18;;;;;;;18.41;100.00;100093.72;5128821;27;20060;-68
2023/08/18 05:33:11;;;;;;;26.95;13.05;;;;;;;18.44;100.00;100095.13;5119453;27;20032;-68
2023/08/18 05:35:37;;;;;;;22.15;12.02;;;;;;;18.46;100.00;100093.03;5115190;28;20084;-70
2023/08/18 05:38:04;;;;;;;20.02;13.10;;;;;;;18.51;100.00;100089.66;5115342;28;20385;-68
2023/08/18 05:40:29;;;;;;;22.53;12.87;;;;;;;18.54;100.00;100095.41;5115129;28;20039;-69
2023/08/18 05:42:54;;;;;;;36.45;14.27;;;;;;;18.56;100.00;100093.31;5114916;28;20044;-68
2023/08/18 05:45:20;;;;;;;25.13;12.82;;;;;;;18.55;100.00;100099.75;5114963;28;20383;-68
2023/08/18 05:47:45;;;;;;;19.38;12.23;;;;;;;18.61;100.00;100101.53;5114993;28;20031;-68
2023/08/18 05:50:11;;;;;;;24.17;12.40;;;;;;;18.65;100.00;100099.22;5114781;27;20413;-68
2023/08/18 05:52:37;;;;;;;26.63;12.93;;;;;;;18.69;100.00;100095.84;5115084;28;20461;-68
2023/08/18 05:55:04;;;;;;;20.27;12.18;;;;;;;18.73;100.00;100101.63;5114869;28;20063;-68
2023/08/18 05:57:30;;;;;;;20.23;11.25;;;;;;;18.80;100.00;100105.03;5114737;28;20410;-69
2023/08/18 05:59:55;;;;;;;19.42;11.50;;;;;;;18.82;100.00;100107.50;5114622;28;20039;-59
2023/08/18 06:02:20;;;;;;;17.15;11.05;;;;;;;18.85;100.00;100105.19;5114777;28;20058;-54
2023/08/18 06:04:46;;;;;;;18.52;10.88;;;;;;;18.90;100.00;100107.97;5114448;28;20108;-55
2023/08/18 06:07:11;;;;;;;17.13;11.65;;;;;;;18.95;100.00;100115.38;5113206;28;20031;-55
2023/08/18 06:09:37;;;;;;;30.70;11.98;;;;;;;18.97;100.00;100114.13;5113606;28;20467;-53
2023/08/18 06:12:03;;;;;;;19.08;11.10;;;;;;;19.03;100.00;100123.16;5114541;28;20051;-53
2023/08/18 06:14:28;;;;;;;19.35;11.32;;;;;;;19.07;100.00;100126.22;5114458;28;20070;-54
2023/08/18 06:16:53;;;;;;;22.92;11.45;;;;;;;19.12;100.00;100126.34;5114278;28;20097;-55
2023/08/18 06:19:19;;;;;;;16.30;10.60;;;;;;;19.17;100.00;100130.00;5114229;28;20046;-52
2023/08/18 06:21:44;;;;;;;21.70;10.23;;;;;;;19.23;100.00;100122.81;5114176;28;20039;-52
2023/08/18 06:24:09;;;;;;;16.00;10.10;;;;;;;19.33;100.00;100116.88;5114304;28;20036;-52
2023/08/18 06:26:35;;;;;;;17.23;10.60;;;;;;;19.38;100.00;100125.09;5114134;28;20378;-52
2023/08/18 06:29:00;;;;;;;17.95;10.60;;;;;;;19.43;100.00;100133.28;5113885;28;20036;-53
2023/08/18 06:31:26;;;;;;;19.40;11.05;;;;;;;19.47;100.00;100135.31;5114373;28;20032;-52
2023/08/18 06:33:51;;;;;;;18.83;11.32;;;;;;;19.53;100.00;100144.34;5114078;28;20027;-50
2023/08/18 06:36:17;;;;;;;20.40;10.48;;;;;;;19.61;100.00;100145.91;5114032;28;20397;-51
2023/08/18 06:38:42;;;;;;;17.45;9.70;;;;;;;19.66;100.00;100151.44;5113677;28;20374;-55
2023/08/18 06:41:09;;;;;;;22.13;11.57;;;;;;;19.71;100.00;100155.09;5113864;28;20595;-53
2023/08/18 06:43:34;;;;;;;18.00;10.52;;;;;;;19.76;100.00;100157.91;5113590;28;20498;-54
2023/08/18 06:45:59;;;;;;;17.08;11.10;;;;;;;19.86;100.00;100159.19;5113256;28;20032;-49
2023/08/18 06:48:25;;;;;;;18.15;11.20;;;;;;;19.96;100.00;100154.03;5113703;28;20447;-54
2023/08/18 06:50:50;;;;;;;18.40;11.25;;;;;;;20.08;100.00;100153.97;5113404;28;20555;-52
2023/08/18 06:53:15;;;;;;;22.23;12.20;;;;;;;20.14;100.00;100155.72;5113799;28;20042;-54
2023/08/18 06:55:41;;;;;;;19.05;10.95;;;;;;;20.21;100.00;100165.38;5113515;28;20043;-54
2023/08/18 06:58:06;;;;;;;19.27;10.23;;;;;;;20.26;100.00;100162.75;5113501;28;20043;-53
2023/08/18 07:00:32;;;;;;;18.20;10.32;;;;;;;20.31;100.00;100162.06;5113344;28;20092;-52
2023/08/18 07:02:57;;;;;;;20.88;9.88;;;;;;;20.38;100.00;100160.03;5113589;28;20027;-51
2023/08/18 07:05:24;;;;;;;18.98;10.27;;;;;;;20.48;100.00;100164.88;5113408;28;20548;-55
2023/08/18 07:07:50;;;;;;;19.02;10.63;;;;;;;20.58;100.00;100165.06;5113531;28;20028;-55
2023/08/18 07:10:15;;;;;;;15.70;9.73;;;;;;;20.63;100.00;100165.16;5112956;28;20039;-52
2023/08/18 07:12:41;;;;;;;17.77;10.27;;;;;;;20.65;100.00;100157.63;5113352;28;20040;-68
2023/08/18 07:15:06;;;;;;;18.77;10.40;;;;;;;20.71;100.00;100166.66;5113194;28;20047;-68
2023/08/18 07:17:31;;;;;;;17.25;9.77;;;;;;;20.76;100.00;100164.06;5113233;28;20081;-68
2023/08/18 07:19:57;;;;;;;17.63;10.05;;;;;;;20.82;100.00;100163.91;5112962;28;20513;-68
2023/08/18 07:22:22;;;;;;;15.05;9.50;;;;;;;20.85;100.00;100159.88;5113089;28;20035;-67
2023/08/18 07:24:48;;;;;;;18.05;9.88;;;;;;;20.89;100.00;100162.94;5112936;28;20036;-68
2023/08/18 07:27:14;;;;;;;16.67;10.13;;;;;;;20.95;100.00;100164.69;5113189;28;20463;-68
2023/08/18 07:29:39;;;;;;;18.08;10.15;;;;;;;21.01;100.00;100161.81;5112861;28;20122;-68
2023/08/18 07:32:05;;;;;;;16.23;10.48;;;;;;;21.08;100.00;100170.59;5112961;28;20061;-67
2023/08/18 07:34:30;;;;;;;13.95;9.32;;;;;;;21.14;100.00;100166.91;5113063;28;20031;-68
2023/08/18 07:36:56;;;;;;;16.05;8.88;;;;;;;21.24;100.00;100171.69;5112841;28;20535;-68
2023/08/18 07:39:22;;;;;;;15.38;9.82;;;;;;;21.32;100.00;100179.47;5112780;28;20046;-66
2023/08/18 07:41:47;;;;;;;15.77;9.55;;;;;;;21.42;100.00;100175.25;5112919;28;20036;-66
2023/08/18 07:44:13;;;;;;;14.23;9.20;;;;;;;21.53;100.00;100175.19;5112874;28;20031;-67
2023/08/18 07:46:38;;;;;;;14.15;10.02;;;;;;;21.60;100.00;100183.97;5112816;28;20677;-67
2023/08/18 07:49:04;;;;;;;17.48;9.57;;;;;;;21.71;100.00;100181.38;5112569;28;20039;-67
2023/08/18 07:51:30;;;;;;;15.13;9.98;;;;;;;21.77;100.00;100183.13;5112582;28;20036;-66
2023/08/18 07:53:55;;;;;;;17.15;10.00;;;;;;;21.88;100.00;100188.44;5112741;28;20041;-66
2023/08/18 07:56:21;;;;;;;17.33;9.10;;;;;;;21.98;100.00;100192.38;5112336;28;20100;-67
2023/08/18 07:58:46;;;;;;;16.17;9.35;;;;;;;22.05;100.00;100195.75;5112347;28;20486;-66
2023/08/18 08:01:11;;;;;;;15.35;9.55;;;;;;;22.19;100.00;100183.50;5112636;28;20042;-67
2023/08/18 08:03:37;;;;;;;16.70;10.38;;;;;;;22.22;100.00;100191.09;5112583;28;20049;-68
2023/08/18 08:06:06;;;;;;;15.15;9.80;;;;;;;22.34;100.00;100194.53;5112547;28;20111;-68
2023/08/18 08:08:31;;;;;;;17.42;11.38;;;;;;;22.48;100.00;100189.53;5112297;28;20051;-67
2023/08/18 08:10:57;;;;;;;20.00;10.90;;;;;;;22.50;100.00;100184.69;5112324;28;20043;-67
2023/08/18 08:13:23;;;;;;;20.15;12.52;;;;;;;22.64;99.79;100185.94;5112522;28;20494;-68
2023/08/18 08:15:49;;;;;;;17.85;12.75;;;;;;;22.72;98.63;100188.19;5112366;28;20034;-68
2023/08/18 08:18:17;;;;;;;18.05;10.85;;;;;;;22.74;99.31;100186.03;5112236;28;20104;-68
2023/08/18 08:20:42;;;;;;;;;;;;;;;22.78;100.00;100193.69;5112561;28;20032;-67
2023/08/18 08:23:07;;;;;;;14.20;9.15;;;;;;;22.96;98.51;100183.34;5112467;28;19938;-67
2023/08/18 08:25:34;;;;;;;15.63;8.73;;;;;;;23.04;100.00;100183.94;5112178;28;20509;-67
2023/08/18 08:28:00;;;;;;;15.93;9.35;;;;;;;23.05;99.99;100180.16;5112295;28;20107;-67
2023/08/18 08:30:26;;;;;;;16.15;9.75;;;;;;;23.07;99.79;100178.00;5111958;28;20581;-67
2023/08/18 08:32:51;;;;;;;16.83;9.75;;;;;;;23.15;98.01;100185.69;5112343;28;20062;-67
2023/08/18 08:35:16;;;;;;;15.48;9.10;;;;;;;23.18;98.96;100179.72;5112270;28;20165;-68
2023/08/18 08:37:42;;;;;;;17.17;8.60;;;;;;;23.24;98.17;100178.69;5112225;28;20093;-67
2023/08/18 08:40:19;;;;;;;17.33;9.43;;;;;;;23.35;98.22;100185.06;5111894;28;20036;-68
2023/08/18 08:42:45;;;;;;;12.05;8.15;;;;;;;23.43;91.94;100188.09;5112265;28;20080;-67
2023/08/18 08:45:11;;;;;;;13.50;9.02;;;;;;;23.53;92.91;100188.16;5112140;28;20031;-67
2023/08/18 08:47:38;;;;;;;12.70;7.95;;;;;;;23.76;95.28;100195.19;5112132;28;20043;-68
2023/08/18 08:50:04;;;;;;;12.95;8.60;;;;;;;23.82;91.21;100190.59;5111918;28;20081;-67
2023/08/18 08:52:41;;;;;;;15.02;7.50;;;;;;;23.91;86.32;100183.56;5111963;28;20040;-67
2023/08/18 08:55:07;;;;;;;13.73;7.45;;;;;;;24.05;85.72;100183.94;5112004;28;20039;-67
2023/08/18 08:57:33;;;;;;;11.03;7.83;;;;;;;24.12;86.86;100181.78;5112116;28;20100;-67
2023/08/18 08:59:59;;;;;;;17.67;9.18;;;;;;;24.15;85.73;100185.91;5111853;28;20035;-67
2023/08/18 09:02:25;;;;;;;12.13;7.82;;;;;;;24.32;84.15;100183.78;5112063;28;20039;-68
2023/08/18 09:04:50;;;;;;;11.57;7.50;;;;;;;24.62;87.00;100186.66;5111914;28;20042;-67
2023/08/18 09:07:16;;;;;;;9.63;7.03;;;;;;;24.66;81.48;100189.69;5112268;28;20031;-68
2023/08/18 09:09:42;;;;;;;11.45;7.50;;;;;;;24.78;79.42;100184.81;5115599;28;20406;-68
2023/08/18 09:12:09;;;;;;;11.48;7.00;;;;;;;24.90;79.76;100182.66;5115849;28;20111;-67
2023/08/18 09:14:37;;;;;;;16.30;7.32;;;;;;;24.99;80.36;100177.50;5115763;28;20035;-68
2023/08/18 09:17:03;;;;;;;12.55;6.75;;;;;;;25.09;80.52;100174.81;5115652;28;20063;-68
2023/08/18 09:19:28;;;;;;;9.70;7.13;;;;;;;25.19;80.65;100168.56;5115256;28;20059;-68
2023/08/18 09:21:58;;;;;;;12.02;7.10;;;;;;;25.48;77.45;100176.19;5115539;28;20094;-68
2023/08/18 09:24:25;;;;;;;10.32;6.85;;;;;;;25.73;76.60;100178.13;5115584;28;20039;-68
2023/08/18 09:26:50;;;;;;;9.07;7.17;;;;;;;26.07;80.58;100170.94;5115480;28;20032;-68
2023/08/18 09:29:16;;;;;;;9.45;6.43;;;;;;;26.06;73.92;100171.22;5115246;28;20395;-68
2023/08/18 09:31:45;;;;;;;9.30;6.13;;;;;;;26.17;72.28;100170.09;5115388;28;20031;-68
2023/08/18 09:34:21;;;;;;;8.20;6.13;;;;;;;26.39;74.41;100167.00;5115306;28;20535;-67
2023/08/18 09:36:55;;;;;;;9.27;6.30;;;;;;;26.65;68.65;100167.72;5115425;28;20035;-68
2023/08/18 09:39:21;;;;;;;8.90;6.07;;;;;;;26.88;69.69;100168.97;5115038;28;20035;-67
2023/08/18 09:41:51;;;;;;;8.35;6.07;;;;;;;27.07;68.90;100172.69;5115347;28;20518;-68
2023/08/18 09:44:17;;;;;;;11.65;6.18;;;;;;;27.14;65.02;100173.19;5115150;28;20035;-67
2023/08/18 09:46:56;;;;;;;9.83;6.37;;;;;;;27.18;66.32;100168.78;5115209;28;20034;-67
2023/08/18 09:49:23;;;;;;;8.32;6.00;;;;;;;27.49;66.38;100168.53;5114914;28;20122;-67
2023/08/18 09:51:52;;;;;;;;;;;;;;;27.87;65.00;100169.56;5115480;28;20042;-67
2023/08/18 09:54:19;;;;;;;7.90;5.53;;;;;;;28.10;64.09;100162.44;5114884;28;19911;-67
2023/08/18 09:56:48;;;;;;;8.23;5.28;;;;;;;28.36;60.17;100168.47;5114993;28;20043;-68
2023/08/18 09:59:23;;;;;;;7.72;6.25;;;;;;;28.53;60.64;100162.50;5114560;28;20039;-67
2023/08/18 10:01:49;;;;;;;7.15;5.63;;;;;;;28.96;60.47;100162.50;5114896;28;20040;-68
2023/08/18 10:04:17;;;;;;;7.17;5.83;;;;;;;29.17;57.74;100158.31;5114960;28;20079;-68
2023/08/18 10:06:44;;;;;;;6.38;4.75;;;;;;;29.57;57.86;100159.56;5114799;28;20492;-68
2023/08/18 10:09:11;;;;;;;7.07;4.95;;;;;;;29.90;55.37;100154.03;5114395;28;20071;-68
2023/08/18 10:11:37;;;;;;;18.02;6.70;;;;;;;30.29;54.91;100161.78;5114615;28;20102;-68
2023/08/18 10:14:04;;;;;;;9.85;5.30;;;;;;;30.29;54.10;100153.53;5114620;28;20040;-68
2023/08/18 10:16:31;;;;;;;7.28;4.70;;;;;;;30.57;53.02;100159.00;5114462;28;20482;-67
2023/08/18 10:18:57;;;;;;;9.38;5.60;;;;;;;30.86;54.14;100151.22;5114170;28;20482;-67
2023/08/18 10:21:23;;;;;;;20.67;7.17;;;;;;;30.50;50.41;100143.72;5114467;28;20115;-68
2023/08/18 10:23:48;;;;;;;7.23;4.73;;;;;;;31.25;49.30;100147.81;5114489;28;20468;-68
2023/08/18 10:26:17;;;;;;;8.90;4.78;;;;;;;31.54;47.16;100150.09;5114247;28;20042;-67
2023/08/18 10:28:42;;;;;;;6.72;4.38;;;;;;;31.72;47.07;100151.00;5113938;28;20069;-67
2023/08/18 10:31:10;;;;;;;8.00;4.80;;;;;;;32.00;46.45;100140.63;5114249;28;20040;-67
2023/08/18 10:33:46;;;;;;;5.63;4.47;;;;;;;32.45;45.81;100134.13;5114328;28;20526;-67
2023/08/18 10:36:25;;;;;;;9.25;4.10;;;;;;;32.75;44.89;100141.44;5114108;28;20398;-67
2023/08/18 10:38:54;;;;;;;6.32;3.80;;;;;;;32.73;43.17;100131.88;5113856;28;20032;-68
2023/08/18 10:41:28;;;;;;;4.65;4.15;;;;;;;32.88;42.75;100131.44;5113976;28;20045;-68
2023/08/18 10:43:58;;;;;;;4.40;3.70;;;;;;;33.14;41.28;100126.69;5113948;28;20043;-68
2023/08/18 10:46:36;;;;;;;6.05;3.65;;;;;;;33.07;41.34;100122.81;5112614;28;20028;-68
2023/08/18 10:49:02;;;;;;;4.90;4.05;;;;;;;33.35;40.34;100120.47;5113588;28;20360;-69
2023/08/18 10:51:28;;;;;;;5.90;3.83;;;;;;;33.70;41.99;100115.69;5113963;28;20044;-68
2023/08/18 10:53:54;;;;;;;4.53;3.30;;;;;;;33.42;40.20;100113.34;5113730;28;20089;-68
2023/08/18 10:56:20;;;;;;;5.63;3.42;;;;;;;33.19;40.13;100107.22;5113670;28;20132;-68
2023/08/18 10:58:45;;;;;;;6.80;3.43;;;;;;;33.98;41.47;100105.84;5113467;28;20070;-68
2023/08/18 11:01:11;;;;;;;6.73;4.57;;;;;;;33.62;41.41;100102.72;5113577;28;20178;-68
2023/08/18 11:03:39;;;;;;;6.43;4.00;;;;;;;34.22;40.80;100099.66;5113618;28;20035;-67
2023/08/18 11:06:04;;;;;;;4.95;3.78;;;;;;;34.68;39.83;100110.91;5113516;28;20028;-67
2023/08/18 11:08:30;;;;;;;5.17;3.40;;;;;;;34.86;39.77;100115.16;5113266;28;20142;-67
2023/08/18 11:10:55;;;;;;;4.67;3.50;;;;;;;35.05;38.07;100109.16;5113478;28;20036;-67
2023/08/18 11:13:23;;;;;;;6.97;3.47;;;;;;;35.59;37.50;100104.34;5113540;28;20035;-67
2023/08/18 11:15:50;;;;;;;5.93;3.13;;;;;;;35.58;38.78;100101.94;5113375;28;20031;-67
2023/08/18 11:18:16;;;;;;;4.28;2.95;;;;;;;35.88;37.58;100103.34;5113200;28;20043;-67
2023/08/18 11:20:42;;;;;;;4.53;3.03;;;;;;;35.89;37.75;100102.19;5113027;28;20059;-67
2023/08/18 11:23:08;;;;;;;3.80;2.90;;;;;;;35.46;36.85;100093.59;5113393;28;20035;-68
2023/08/18 11:25:35;;;;;;;3.88;2.80;;;;;;;36.11;37.23;100100.09;5113133;28;20032;-67
2023/08/18 11:28:02;;;;;;;6.57;3.00;;;;;;;36.46;34.93;100083.00;5113114;28;20043;-66
2023/08/18 11:30:27;;;;;;;3.72;2.70;;;;;;;36.63;34.12;100077.13;5112214;28;20031;-67
2023/08/18 11:32:54;;;;;;;3.80;2.53;;;;;;;36.81;34.89;100084.00;5113125;28;20450;-67
2023/08/18 11:35:20;;;;;;;2.80;2.55;;;;;;;36.87;34.24;100079.84;5112547;28;20040;-67
2023/08/18 11:37:47;;;;;;;3.67;2.78;;;;;;;36.89;33.32;100073.94;5112552;28;20027;-67
2023/08/18 11:40:14;;;;;;;3.45;2.60;;;;;;;37.46;34.71;100078.28;5112374;28;20054;-67
2023/08/18 11:42:43;;;;;;;4.70;2.80;;;;;;;37.72;34.07;100080.50;5109941;28;20036;-67
2023/08/18 11:45:16;;;;;;;5.97;2.58;;;;;;;37.08;33.75;100070.50;5112374;28;20080;-67
2023/08/18 11:47:42;;;;;;;4.38;2.67;;;;;;;37.27;33.20;100067.03;5110201;28;20031;-68
2023/08/18 11:50:08;;;;;;;2.70;2.40;;;;;;;36.53;33.54;100063.78;5112230;28;20124;-67
2023/08/18 11:52:44;;;;;;;2.60;2.22;;;;;;;38.10;33.49;100071.50;5112235;28;20470;-67
2023/08/18 11:55:11;;;;;;;2.53;2.08;;;;;;;38.14;34.55;100066.81;5112395;28;20406;-67
2023/08/18 11:57:40;;;;;;;2.78;2.58;;;;;;;38.16;32.55;100072.03;5112479;28;20036;-67
2023/08/18 12:00:11;;;;;;;3.80;2.47;;;;;;;38.14;31.46;100072.38;5112312;28;20039;-67
2023/08/18 12:02:42;;;;;;;5.30;2.50;;;;;;;38.36;31.44;100070.09;5112605;28;20375;-68
2023/08/18 12:05:17;;;;;;;4.63;2.70;;;;;;;38.28;32.51;100066.38;5112599;28;20069;-67
2023/08/18 12:07:43;;;;;;;5.07;2.47;;;;;;;38.12;32.13;100068.34;5112589;28;20125;-67
2023/08/18 12:10:08;;;;;;;3.00;2.10;;;;;;;38.50;32.21;100062.06;5112293;28;20107;-68
2023/08/18 12:12:34;;;;;;;5.15;2.30;;;;;;;37.85;32.26;100059.81;5112525;28;20486;-67
2023/08/18 12:14:59;;;;;;;3.20;2.17;;;;;;;38.30;33.71;100054.88;5112459;28;20035;-68
2023/08/18 12:17:24;;;;;;;3.70;2.20;;;;;;;38.65;32.35;100054.81;5112342;28;20115;-68
2023/08/18 12:19:50;;;;;;;3.73;2.17;;;;;;;39.04;30.79;100056.38;5112112;28;20126;-67
2023/08/18 12:22:15;;;;;;;6.10;2.10;;;;;;;38.80;32.27;100053.97;5112118;28;20391;-68
2023/08/18 12:24:40;;;;;;;4.07;2.27;;;;;;;39.32;31.26;100055.31;5110982;28;20119;-67
2023/08/18 12:27:06;;;;;;;2.80;2.10;;;;;;;39.14;32.10;100054.19;5112308;28;20532;-67
2023/08/18 12:29:31;;;;;;;3.17;1.93;;;;;;;39.27;31.84;100050.06;5111928;28;20047;-67
2023/08/18 12:31:56;;;;;;;5.70;2.30;;;;;;;38.98;31.65;100046.72;5110953;28;20103;-66
2023/08/18 12:34:22;;;;;;;4.73;2.40;;;;;;;39.16;30.36;100040.72;5112041;28;20043;-66
2023/08/18 12:36:47;;;;;;;4.57;2.37;;;;;;;39.18;30.75;100039.16;5112095;28;20281;-69
2023/08/18 12:39:14;;;;;;;4.43;2.50;;;;;;;38.91;30.89;100040.22;5111904;28;20095;-68
2023/08/18 12:41:40;;;;;;;3.28;2.42;;;;;;;39.57;30.32;100042.59;5112044;28;20671;-68
2023/08/18 12:44:09;;;;;;;;;;;;;;;39.28;32.60;100037.75;5116196;28;20067;-69
2023/08/18 12:46:35;;;;;;;3.88;2.05;;;;;;;39.27;31.70;100033.34;5116186;28;19920;-68
2023/08/18 12:49:01;;;;;;;4.03;2.50;;;;;;;39.03;32.54;100034.50;5115970;28;20119;-68
2023/08/18 12:51:26;;;;;;;2.72;2.10;;;;;;;39.74;30.53;100038.53;5116079;28;20398;-66
2023/08/18 12:53:52;;;;;;;3.53;2.33;;;;;;;39.73;30.06;100033.34;5116161;28;20476;-67
2023/08/18 12:56:17;;;;;;;4.43;2.30;;;;;;;39.84;30.18;100031.47;5115964;28;20277;-68
2023/08/18 12:58:43;;;;;;;3.03;2.27;;;;;;;39.74;30.01;100026.56;5115613;28;20498;-67
2023/08/18 13:01:11;;;;;;;2.65;2.13;;;;;;;39.74;30.44;100030.16;5114698;28;20289;-68
2023/08/18 13:03:37;;;;;;;3.75;2.20;;;;;;;39.17;30.11;100025.63;5115904;28;20032;-67
2023/08/18 13:06:03;;;;;;;3.63;2.20;;;;;;;39.57;29.72;100025.88;5115729;28;20398;-68
2023/08/18 13:08:29;;;;;;;2.97;1.98;;;;;;;39.74;29.48;100018.22;5115434;28;20281;-68
2023/08/18 13:10:55;;;;;;;4.50;2.28;;;;;;;39.98;30.57;100020.56;5115613;28;20043;-68
2023/08/18 13:13:20;;;;;;;2.60;2.17;;;;;;;40.03;30.18;100020.25;5115777;28;20044;-68
2023/08/18 13:15:46;;;;;;;4.03;1.80;;;;;;;39.98;30.79;100023.34;5115666;28;20085;-67
2023/08/18 13:18:11;;;;;;;3.90;1.83;;;;;;;39.87;30.85;100022.38;5114502;28;20289;-68
2023/08/18 13:20:36;;;;;;;2.55;1.90;;;;;;;39.94;29.53;100014.13;5115209;28;20451;-68
2023/08/18 13:23:03;;;;;;;2.85;2.00;;;;;;;40.08;29.55;100010.75;5114322;28;20046;-68
2023/08/18 13:25:32;;;;;;;4.60;2.15;;;;;;;40.01;30.16;100016.19;5115365;28;20443;-67
2023/08/18 13:27:58;;;;;;;3.40;2.20;;;;;;;40.14;28.41;100015.63;5115346;28;20034;-67
2023/08/18 13:30:24;;;;;;;3.50;1.75;;;;;;;39.71;28.72;100016.16;5115066;28;20144;-67
2023/08/18 13:32:50;;;;;;;;;;;;;;;39.59;29.21;100009.66;5115794;28;20129;-67
2023/08/18 13:35:15;;;;;;;3.42;2.17;;;;;;;39.76;29.74;100011.06;5115163;28;19916;-67
2023/08/18 13:37:40;;;;;;;3.60;1.83;;;;;;;39.79;29.80;100015.09;5115169;28;20088;-67
2023/08/18 13:40:06;;;;;;;;;;;;;;;39.65;30.70;100010.13;5115192;28;20528;-67
2023/08/18 13:42:31;;;;;;;3.67;2.03;;;;;;;39.37;31.38;100004.06;5115123;28;19919;-67
2023/08/18 13:44:57;;;;;;;2.83;2.00;;;;;;;39.09;31.74;100003.19;5115148;28;20042;-67
2023/08/18 13:47:22;;;;;;;4.30;2.40;;;;;;;38.78;31.78;100001.44;5115168;28;20655;-67
2023/08/18 13:49:47;;;;;;;2.20;1.80;;;;;;;38.01;32.56;99987.50;5114766;28;20032;-68
2023/08/18 13:52:13;;;;;;;2.30;1.90;;;;;;;38.04;33.43;99994.31;5115031;28;20397;-66
2023/08/18 13:54:38;;;;;;;3.67;2.00;;;;;;;37.53;33.24;99992.34;5114360;28;20921;-67
2023/08/18 13:57:04;;;;;;;3.93;2.00;;;;;;;36.84;32.71;99986.19;5113563;28;20142;-67
2023/08/18 13:59:29;;;;;;;3.77;2.13;;;;;;;36.52;33.17;99988.09;5114220;28;20425;-66
2023/08/18 14:01:55;;;;;;;3.30;2.00;;;;;;;36.04;33.97;99978.75;5114790;28;20035;-67
2023/08/18 14:04:20;;;;;;;3.43;2.03;;;;;;;36.18;34.28;99975.59;5113635;28;20050;-67
2023/08/18 14:06:46;;;;;;;4.43;2.10;;;;;;;36.09;35.48;99977.72;5114660;28;20490;-67
2023/08/18 14:09:12;;;;;;;5.60;1.70;;;;;;;35.93;34.92;99974.88;5114400;28;20036;-67
2023/08/18 14:11:37;;;;;;;3.27;1.87;;;;;;;35.75;34.66;99977.06;5114632;28;20126;-67
2023/08/18 14:14:02;;;;;;;3.07;2.03;;;;;;;35.63;34.19;99974.31;5114700;28;20119;-67
2023/08/18 14:16:28;;;;;;;3.60;1.70;;;;;;;35.26;34.71;99979.00;5113231;28;20047;-67
2023/08/18 14:18:54;;;;;;;3.97;1.67;;;;;;;35.07;34.84;99974.03;5114170;28;20081;-67
2023/08/18 14:21:19;;;;;;;4.10;1.80;;;;;;;34.98;34.59;99971.38;5114532;28;20032;-67
2023/08/18 14:23:45;;;;;;;4.00;1.95;;;;;;;35.04;35.31;99974.72;5114363;28;20047;-67
2023/08/18 14:26:11;;;;;;;2.50;1.47;;;;;;;34.84;35.88;99964.50;5114318;28;20032;-67
2023/08/18 14:28:36;;;;;;;3.92;1.65;;;;;;;34.80;34.46;99967.94;5114061;28;20070;-67
2023/08/18 14:31:02;;;;;;;2.73;1.87;;;;;;;34.45;34.99;99958.41;5112431;28;20059;-67
2023/08/18 14:33:27;;;;;;;4.57;1.77;;;;;;;34.34;36.93;99959.94;5113972;28;20409;-66
2023/08/18 14:35:53;;;;;;;2.40;1.80;;;;;;;34.29;35.60;99952.66;5114192;28;20040;-67
2023/08/18 14:38:19;;;;;;;2.10;1.73;;;;;;;34.35;35.30;99953.25;5113951;28;20444;-68
2023/08/18 14:40:44;;;;;;;3.75;1.77;;;;;;;34.28;37.23;99954.59;5095153;28;20048;-66
2023/08/18 14:43:10;;;;;;;3.13;1.90;;;;;;;34.32;36.93;99952.00;5113965;28;20050;-67
2023/08/18 14:45:39;;;;;;;2.97;1.55;;;;;;;34.22;35.45;99944.91;5096258;28;20040;-68
2023/08/18 14:48:05;;;;;;;5.93;1.97;;;;;;;34.23;35.24;99945.72;5113858;28;20044;-67
2023/08/18 14:50:34;;;;;;;3.42;1.73;;;;;;;34.19;35.76;99955.84;5113514;28;20032;-68
2023/08/18 14:52:59;;;;;;;3.15;1.90;;;;;;;34.22;36.58;99946.88;5113978;28;20581;-68
2023/08/18 14:55:25;;;;;;;3.77;1.90;;;;;;;33.90;34.92;99934.59;5113642;28;20044;-67
2023/08/18 14:57:50;;;;;;;3.77;1.87;;;;;;;33.93;35.57;99943.06;5112415;28;20043;-67
2023/08/18 15:00:16;;;;;;;3.17;1.80;;;;;;;33.96;35.27;99938.78;5113482;27;20055;-67
2023/08/18 15:02:41;;;;;;;2.30;1.60;;;;;;;33.89;36.48;99935.72;5113437;28;20123;-67
2023/08/18 15:05:07;;;;;;;4.70;1.90;;;;;;;33.83;35.42;99931.56;5112615;28;20035;-67
2023/08/18 15:07:33;;;;;;;4.13;1.85;;;;;;;33.87;35.46;99932.50;5113344;28;20086;-67
2023/08/18 15:09:58;;;;;;;4.18;1.55;;;;;;;33.92;35.44;99929.59;5113459;28;20418;-67
2023/08/18 15:12:25;;;;;;;4.33;1.87;;;;;;;33.89;35.24;99931.00;5113347;28;20047;-67
2023/08/18 15:14:50;;;;;;;5.10;1.80;;;;;;;33.81;35.46;99928.31;5113296;28;20040;-67
2023/08/18 15:17:16;;;;;;;3.00;1.50;;;;;;;33.77;35.45;99932.91;5113152;28;20039;-67
2023/08/18 15:19:41;;;;;;;4.00;1.60;;;;;;;33.78;34.49;99926.22;5112949;28;20035;-67
2023/08/18 15:22:07;;;;;;;7.13;1.90;;;;;;;33.79;35.07;99928.66;5113074;28;20080;-67
2023/08/18 15:24:32;;;;;;;2.50;1.53;;;;;;;33.81;35.35;99934.66;5113224;28;20035;-67
2023/08/18 15:26:57;;;;;;;3.20;1.53;;;;;;;33.83;35.61;99926.84;5113002;28;20040;-67
2023/08/18 15:29:23;;;;;;;3.67;1.70;;;;;;;33.77;35.26;99930.94;5112846;28;20490;-67
2023/08/18 15:31:48;;;;;;;3.67;1.47;;;;;;;33.72;35.35;99925.63;5113003;28;20095;-67
2023/08/18 15:34:14;;;;;;;4.33;1.90;;;;;;;33.64;35.17;99934.75;5113005;28;20040;-67
2023/08/18 15:36:39;;;;;;;5.63;1.80;;;;;;;33.58;35.30;99927.81;5112839;28;20040;-67